ESOW/VST METAR and TAF weather

Enter ICAO airport designator
Station Type Date Time Source
ESOW METAR 2022/12/02 22:20 UTC NOAA

ESOW 022220Z AUTO 02006KT 9999 OVC028/// 01/M01 Q1037


Station Type Date Time Source
ESOW Decoded METAR 2022/12/02 22:20 UTC NOAA

Vasteras / Hasslo, Sweden (ESOW) 59-35N 016-38E 31M
Dec 02, 2022 - 05:20 PM EST / 2022.12.02 2220 UTC
Wind: from the NNE (020 degrees) at 7 MPH (6 KT):0
Visibility: greater than 7 mile(s):0
Sky conditions: overcast
Temperature: 33 F (1 C)
Windchill: 26 F (-3 C):1
Dew Point: 30 F (-1 C)
Relative Humidity: 86%
Pressure (altimeter): 30.62 in. Hg (1037 hPa)
ob: ESOW 022220Z AUTO 02006KT 9999 OVC028/// 01/M01 Q1037
cycle: 22

Station Type Date Time Source
ESOW TAF 2021/05/19 03:36 UTC NOAA

TAF TAF ESOW 190230Z 1903/1915 27005KT CAVOK

Example: see airport list